createdAt,value
2018-07-15T00:00:13.625Z,1004.71
2018-07-15T00:01:13.639Z,1004.70
2018-07-15T00:02:13.660Z,1004.69
2018-07-15T00:03:13.676Z,1004.69
2018-07-15T00:04:13.695Z,1004.70
2018-07-15T00:05:13.719Z,1004.68
2018-07-15T00:06:13.750Z,1004.70
2018-07-15T00:07:13.769Z,1004.72
2018-07-15T00:08:13.779Z,1004.67
2018-07-15T00:09:13.805Z,1004.66
2018-07-15T00:10:13.819Z,1004.68
2018-07-15T00:11:13.837Z,1004.66
2018-07-15T00:12:13.858Z,1004.69
2018-07-15T00:13:13.880Z,1004.66
2018-07-15T00:14:13.901Z,1004.65
2018-07-15T00:15:13.915Z,1004.67
2018-07-15T00:16:13.938Z,1004.66
2018-07-15T00:17:13.962Z,1004.62
2018-07-15T00:18:13.984Z,1004.64
2018-07-15T00:19:14.014Z,1004.62
2018-07-15T00:20:14.025Z,1004.62
2018-07-15T00:21:14.043Z,1004.62
2018-07-15T00:22:14.054Z,1004.63
2018-07-15T00:23:14.072Z,1004.62
2018-07-15T00:24:14.098Z,1004.62
2018-07-15T00:25:14.115Z,1004.62
2018-07-15T00:26:14.137Z,1004.58
2018-07-15T00:27:14.163Z,1004.65
2018-07-15T00:28:14.179Z,1004.62
2018-07-15T00:29:14.203Z,1004.65
2018-07-15T00:30:14.215Z,1004.65
2018-07-15T00:31:14.239Z,1004.70
2018-07-15T00:32:14.256Z,1004.69
2018-07-15T00:33:14.275Z,1004.67
2018-07-15T00:34:14.309Z,1004.69
2018-07-15T00:35:14.314Z,1004.70
2018-07-15T00:36:14.333Z,1004.70
2018-07-15T00:37:14.384Z,1004.71
2018-07-15T00:38:14.377Z,1004.73
2018-07-15T00:39:14.397Z,1004.71
2018-07-15T00:40:14.411Z,1004.72
2018-07-15T00:41:14.435Z,1004.67
2018-07-15T00:42:14.462Z,1004.67
2018-07-15T00:43:14.475Z,1004.65
2018-07-15T00:44:14.503Z,1004.67
2018-07-15T00:45:14.514Z,1004.64
2018-07-15T00:46:14.527Z,1004.58
2018-07-15T00:47:14.549Z,1004.62
2018-07-15T00:48:14.575Z,1004.66
2018-07-15T00:49:14.598Z,1004.63
2018-07-15T00:50:14.616Z,1004.59
2018-07-15T00:51:14.635Z,1004.64
2018-07-15T00:52:14.649Z,1004.66
2018-07-15T00:53:14.666Z,1004.64
2018-07-15T00:54:14.692Z,1004.70
2018-07-15T00:55:14.759Z,1004.69
2018-07-15T00:56:14.730Z,1004.67
2018-07-15T00:57:14.753Z,1004.71
2018-07-15T00:58:14.773Z,1004.70
2018-07-15T00:59:14.790Z,1004.68
2018-07-15T01:00:14.805Z,1004.70
2018-07-15T01:01:14.832Z,1004.67
2018-07-15T01:02:14.845Z,1004.66
2018-07-15T01:03:14.864Z,1004.68
2018-07-15T01:04:14.880Z,1004.68
2018-07-15T01:05:14.916Z,1004.65
2018-07-15T01:06:14.926Z,1004.61
2018-07-15T01:07:14.944Z,1004.60
2018-07-15T01:08:14.963Z,1004.63
2018-07-15T01:09:14.982Z,1004.59
2018-07-15T01:10:15.005Z,1004.62
2018-07-15T01:11:15.019Z,1004.60
2018-07-15T01:12:15.047Z,1004.60
2018-07-15T01:13:15.067Z,1004.59
2018-07-15T01:14:15.082Z,1004.57
2018-07-15T01:15:15.103Z,1004.55
2018-07-15T01:16:15.120Z,1004.55
2018-07-15T01:17:15.157Z,1004.56
2018-07-15T01:18:15.156Z,1004.56
2018-07-15T01:19:15.179Z,1004.55
2018-07-15T01:20:15.201Z,1004.52
2018-07-15T01:21:15.216Z,1004.56
2018-07-15T01:22:15.238Z,1004.52
2018-07-15T01:23:15.259Z,1004.54
2018-07-15T01:24:15.273Z,1004.54
2018-07-15T01:25:15.292Z,1004.54
2018-07-15T01:26:15.314Z,1004.56
2018-07-15T01:27:15.330Z,1004.57
2018-07-15T01:28:15.352Z,1004.59
2018-07-15T01:29:15.369Z,1004.59
2018-07-15T01:30:15.393Z,1004.54
2018-07-15T01:31:15.412Z,1004.54
2018-07-15T01:32:15.430Z,1004.52
2018-07-15T01:33:15.446Z,1004.52
2018-07-15T01:34:15.472Z,1004.51
2018-07-15T01:35:15.484Z,1004.52
2018-07-15T01:36:15.509Z,1004.53
2018-07-15T01:37:15.528Z,1004.50
2018-07-15T01:38:15.550Z,1004.51
2018-07-15T01:39:15.567Z,1004.48
2018-07-15T01:40:15.584Z,1004.49
2018-07-15T01:41:15.608Z,1004.48
2018-07-15T01:42:15.624Z,1004.46
2018-07-15T01:43:15.674Z,1004.46
2018-07-15T01:44:15.661Z,1004.47
2018-07-15T01:45:15.682Z,1004.49
2018-07-15T01:46:15.708Z,1004.49
2018-07-15T01:47:15.723Z,1004.46
2018-07-15T01:48:15.738Z,1004.52
2018-07-15T01:49:15.765Z,1004.51
2018-07-15T01:50:15.778Z,1004.52
2018-07-15T01:51:15.804Z,1004.52
2018-07-15T01:52:15.820Z,1004.52
2018-07-15T01:53:15.837Z,1004.50
2018-07-15T01:54:15.854Z,1004.50
2018-07-15T01:55:15.997Z,1004.44
2018-07-15T01:56:15.899Z,1004.49
2018-07-15T01:57:15.914Z,1004.46
2018-07-15T01:58:15.944Z,1004.39
2018-07-15T01:59:15.957Z,1004.39
2018-07-15T02:00:15.969Z,1004.38
2018-07-15T02:01:15.990Z,1004.36
2018-07-15T02:02:16.012Z,1004.35
2018-07-15T02:03:16.030Z,1004.35
2018-07-15T02:04:16.057Z,1004.33
2018-07-15T02:05:16.071Z,1004.35
2018-07-15T02:06:16.096Z,1004.31
2018-07-15T02:07:16.107Z,1004.34
2018-07-15T02:08:16.122Z,1004.34
2018-07-15T02:09:16.148Z,1004.32
2018-07-15T02:10:16.169Z,1004.35
2018-07-15T02:11:16.183Z,1004.31
2018-07-15T02:12:16.210Z,1004.31
2018-07-15T02:13:16.226Z,1004.34
2018-07-15T02:14:16.252Z,1004.31
2018-07-15T02:15:16.258Z,1004.33
2018-07-15T02:16:16.278Z,1004.33
2018-07-15T02:17:16.298Z,1004.32
2018-07-15T02:18:16.321Z,1004.30
2018-07-15T02:19:16.337Z,1004.31
2018-07-15T02:20:16.363Z,1004.32
2018-07-15T02:21:16.398Z,1004.32
2018-07-15T02:22:16.397Z,1004.33
2018-07-15T02:23:16.417Z,1004.34
2018-07-15T02:24:16.435Z,1004.33
2018-07-15T02:25:16.452Z,1004.37
2018-07-15T02:26:16.515Z,1004.33
2018-07-15T02:27:16.489Z,1004.34
2018-07-15T02:28:16.508Z,1004.33
2018-07-15T02:29:16.528Z,1004.37
2018-07-15T02:30:16.548Z,1004.39
2018-07-15T02:31:16.564Z,1004.39
2018-07-15T02:32:16.583Z,1004.36
2018-07-15T02:33:16.613Z,1004.36
2018-07-15T02:34:16.631Z,1004.33
2018-07-15T02:35:16.643Z,1004.37
2018-07-15T02:36:16.667Z,1004.36
2018-07-15T02:37:16.683Z,1004.35
2018-07-15T02:38:16.702Z,1004.33
2018-07-15T02:39:16.718Z,1004.33
2018-07-15T02:40:16.742Z,1004.35
2018-07-15T02:41:16.755Z,1004.33
2018-07-15T02:42:16.780Z,1004.35
2018-07-15T02:43:16.799Z,1004.36
2018-07-15T02:44:16.828Z,1004.37
2018-07-15T02:45:16.835Z,1004.36
2018-07-15T02:46:16.849Z,1004.34
2018-07-15T02:47:16.872Z,1004.35
2018-07-15T02:48:16.897Z,1004.33
2018-07-15T02:49:16.906Z,1004.32
2018-07-15T02:50:16.938Z,1004.32
2018-07-15T02:51:16.965Z,1004.33
2018-07-15T02:52:16.968Z,1004.33
2018-07-15T02:53:16.990Z,1004.36
2018-07-15T02:54:17.007Z,1004.32
2018-07-15T02:55:17.036Z,1004.38
2018-07-15T02:56:17.060Z,1004.35
2018-07-15T02:57:17.058Z,1004.36
2018-07-15T02:58:17.089Z,1004.33
2018-07-15T02:59:17.100Z,1004.32
2018-07-15T03:00:17.125Z,1004.32
2018-07-15T03:01:17.135Z,1004.29
2018-07-15T03:02:17.156Z,1004.29
2018-07-15T03:03:17.176Z,1004.30
2018-07-15T03:04:17.196Z,1004.29
2018-07-15T03:05:17.229Z,1004.27
2018-07-15T03:06:17.234Z,1004.25
2018-07-15T03:07:17.257Z,1004.28
2018-07-15T03:08:17.269Z,1004.27
2018-07-15T03:09:17.291Z,1004.24
2018-07-15T03:10:17.308Z,1004.23
2018-07-15T03:11:17.329Z,1004.24
2018-07-15T03:12:17.352Z,1004.20
2018-07-15T03:13:17.364Z,1004.22
2018-07-15T03:14:17.386Z,1004.18
2018-07-15T03:15:17.412Z,1004.20
2018-07-15T03:16:17.423Z,1004.21
2018-07-15T03:17:17.494Z,1004.18
2018-07-15T03:18:17.460Z,1004.22
2018-07-15T03:19:17.481Z,1004.20
2018-07-15T03:20:17.499Z,1004.21
2018-07-15T03:21:17.628Z,1004.21
2018-07-15T03:22:17.545Z,1004.19
2018-07-15T03:23:17.556Z,1004.21
2018-07-15T03:24:17.569Z,1004.23
2018-07-15T03:25:17.590Z,1004.25
2018-07-15T03:26:17.613Z,1004.20
2018-07-15T03:27:17.632Z,1004.20
2018-07-15T03:28:17.646Z,1004.19
2018-07-15T03:29:17.665Z,1004.20
2018-07-15T03:30:17.690Z,1004.21
2018-07-15T03:31:17.703Z,1004.21
2018-07-15T03:32:17.727Z,1004.19
2018-07-15T03:33:17.763Z,1004.22
2018-07-15T03:34:17.763Z,1004.21
2018-07-15T03:35:17.788Z,1004.24
2018-07-15T03:36:17.801Z,1004.23
2018-07-15T03:37:17.818Z,1004.24
2018-07-15T03:38:17.842Z,1004.22
2018-07-15T03:39:17.855Z,1004.16
2018-07-15T03:40:17.878Z,1004.20
2018-07-15T03:41:17.896Z,1004.21
2018-07-15T03:42:17.913Z,1004.17
2018-07-15T03:43:17.941Z,1004.12
2018-07-15T03:44:17.947Z,1004.18
2018-07-15T03:45:17.969Z,1004.16
2018-07-15T03:46:17.987Z,1004.13
2018-07-15T03:47:18.013Z,1004.17
2018-07-15T03:48:18.027Z,1004.15
2018-07-15T03:49:18.063Z,1004.14
2018-07-15T03:50:18.068Z,1004.14
2018-07-15T03:51:18.084Z,1004.14
2018-07-15T03:52:18.107Z,1004.16
2018-07-15T03:53:18.124Z,1004.14
2018-07-15T03:54:18.154Z,1004.18
2018-07-15T03:55:18.160Z,1004.16
2018-07-15T03:56:18.179Z,1004.15
2018-07-15T03:57:18.199Z,1004.11
2018-07-15T03:58:18.217Z,1004.12
2018-07-15T03:59:18.235Z,1004.09
2018-07-15T04:00:18.252Z,1004.13
2018-07-15T04:01:18.275Z,1004.11
2018-07-15T04:02:18.309Z,1004.14
2018-07-15T04:03:18.309Z,1004.08
2018-07-15T04:04:18.329Z,1004.12
2018-07-15T04:05:18.349Z,1004.10
2018-07-15T04:06:18.366Z,1004.11
2018-07-15T04:07:18.386Z,1004.08
2018-07-15T04:08:18.405Z,1004.11
2018-07-15T04:09:18.426Z,1004.10
2018-07-15T04:10:18.441Z,1004.07
2018-07-15T04:11:18.462Z,1004.10
2018-07-15T04:12:18.480Z,1004.09
2018-07-15T04:13:18.507Z,1004.11
2018-07-15T04:14:18.530Z,1004.12
2018-07-15T04:15:18.538Z,1004.11
2018-07-15T04:16:18.556Z,1004.14
2018-07-15T04:17:18.573Z,1004.05
2018-07-15T04:18:18.606Z,1004.09
2018-07-15T04:19:18.608Z,1004.07
2018-07-15T04:20:18.653Z,1004.09
2018-07-15T04:21:18.649Z,1004.09
2018-07-15T04:22:18.692Z,1004.10
2018-07-15T04:23:18.693Z,1004.09
2018-07-15T04:24:18.707Z,1004.09
2018-07-15T04:25:18.729Z,1004.08
2018-07-15T04:26:18.752Z,1004.07
2018-07-15T04:27:18.764Z,1004.10
2018-07-15T04:28:18.834Z,1004.04
2018-07-15T04:29:18.806Z,1004.08
2018-07-15T04:30:18.826Z,1004.08
2018-07-15T04:31:18.842Z,1004.08
2018-07-15T04:32:18.859Z,1004.07
2018-07-15T04:33:18.878Z,1004.08
2018-07-15T04:34:18.903Z,1004.09
2018-07-15T04:35:18.923Z,1004.07
2018-07-15T04:36:18.938Z,1004.04
2018-07-15T04:37:18.970Z,1004.07
2018-07-15T04:38:18.975Z,1004.09
2018-07-15T04:39:19.003Z,1004.14
2018-07-15T04:40:19.020Z,1004.12
2018-07-15T04:41:19.037Z,1004.16
2018-07-15T04:42:19.054Z,1004.15
2018-07-15T04:43:19.075Z,1004.15
2018-07-15T04:44:19.089Z,1004.14
2018-07-15T04:45:19.107Z,1004.14
2018-07-15T04:46:19.135Z,1004.16
2018-07-15T04:47:19.162Z,1004.15
2018-07-15T04:48:19.171Z,1004.19
2018-07-15T04:49:19.192Z,1004.18
2018-07-15T04:50:19.217Z,1004.20
2018-07-15T04:51:19.238Z,1004.23
2018-07-15T04:52:19.250Z,1004.20
2018-07-15T04:53:19.265Z,1004.18
2018-07-15T04:54:19.291Z,1004.19
2018-07-15T04:55:19.315Z,1004.18
2018-07-15T04:56:19.331Z,1004.23
2018-07-15T04:57:19.347Z,1004.24
2018-07-15T04:58:19.372Z,1004.30
2018-07-15T04:59:19.384Z,1004.47
2018-07-15T05:00:19.400Z,1004.87
2018-07-15T05:01:19.423Z,1004.98
2018-07-15T05:02:19.446Z,1004.96
2018-07-15T05:03:19.463Z,1005.08
2018-07-15T05:04:19.497Z,1005.09
2018-07-15T05:05:19.504Z,1005.11
2018-07-15T05:06:19.540Z,1005.14
2018-07-15T05:07:19.549Z,1005.15
2018-07-15T05:08:19.570Z,1005.16
2018-07-15T05:09:19.597Z,1005.15
2018-07-15T05:10:19.616Z,1005.18
2018-07-15T05:11:19.739Z,1005.19
2018-07-15T05:12:19.722Z,1005.27
2018-07-15T05:13:19.693Z,1005.27
2018-07-15T05:14:19.715Z,1005.31
2018-07-15T05:15:19.736Z,1005.33
2018-07-15T05:16:19.759Z,1005.34
2018-07-15T05:17:19.789Z,1005.30
2018-07-15T05:18:19.851Z,1005.33
2018-07-15T05:19:19.841Z,1005.35
2018-07-15T05:20:19.859Z,1005.35
2018-07-15T05:21:19.888Z,1005.38
2018-07-15T05:22:19.914Z,1005.39
2018-07-15T05:23:19.943Z,1005.43
2018-07-15T05:24:19.974Z,1005.45
2018-07-15T05:25:19.994Z,1005.49
2018-07-15T05:26:20.021Z,1005.51
2018-07-15T05:27:20.046Z,1005.51
2018-07-15T05:28:20.094Z,1005.58
2018-07-15T05:29:20.100Z,1005.58
2018-07-15T05:30:20.132Z,1005.57
2018-07-15T05:31:20.149Z,1005.59
2018-07-15T05:32:20.183Z,1005.59
2018-07-15T05:33:20.209Z,1005.56
2018-07-15T05:34:20.232Z,1005.57
2018-07-15T05:35:20.265Z,1005.59
2018-07-15T05:36:20.293Z,1005.63
2018-07-15T05:37:20.314Z,1005.64
2018-07-15T05:38:20.344Z,1005.69
2018-07-15T05:39:20.373Z,1005.69
2018-07-15T05:40:20.405Z,1005.70
2018-07-15T05:41:20.432Z,1005.73
2018-07-15T05:42:20.459Z,1005.73
2018-07-15T05:43:20.484Z,1005.72
2018-07-15T05:44:20.527Z,1005.82
2018-07-15T05:45:20.547Z,1005.80
2018-07-15T05:46:20.580Z,1005.85
2018-07-15T05:47:20.597Z,1005.86
2018-07-15T05:48:20.627Z,1005.87
2018-07-15T05:49:20.658Z,1005.94
2018-07-15T05:50:20.689Z,1005.98
2018-07-15T05:51:20.720Z,1006.08
2018-07-15T05:52:20.743Z,1006.12
2018-07-15T05:53:20.780Z,1006.15
2018-07-15T05:54:20.813Z,1006.16
2018-07-15T05:55:20.831Z,1006.21
2018-07-15T05:56:20.867Z,1006.31
2018-07-15T05:57:20.890Z,1006.31
2018-07-15T05:58:20.922Z,1006.34
2018-07-15T05:59:20.954Z,1006.41
2018-07-15T06:00:20.983Z,1006.43
2018-07-15T06:01:21.026Z,1006.41
2018-07-15T06:02:21.050Z,1006.46
2018-07-15T06:03:21.115Z,1006.47
2018-07-15T06:04:21.099Z,1006.53
2018-07-15T06:05:21.132Z,1006.68
2018-07-15T06:06:21.160Z,1006.78
2018-07-15T06:07:21.191Z,1006.74
2018-07-15T06:08:21.223Z,1006.83
2018-07-15T06:09:21.252Z,1006.84
2018-07-15T06:10:21.294Z,1006.91
2018-07-15T06:11:21.315Z,1006.84
2018-07-15T06:12:21.342Z,1006.81
2018-07-15T06:13:21.371Z,1006.80
2018-07-15T06:14:21.407Z,1006.95
2018-07-15T06:15:21.439Z,1007.27
2018-07-15T06:16:21.474Z,1007.51
2018-07-15T06:17:21.491Z,1007.55
2018-07-15T06:18:21.539Z,1007.61
2018-07-15T06:19:21.555Z,1007.79
2018-07-15T06:20:21.587Z,1007.83
2018-07-15T06:21:21.620Z,1008.13
2018-07-15T06:22:21.651Z,1008.53
2018-07-15T06:23:21.678Z,1009.12
2018-07-15T06:24:21.707Z,1009.47
2018-07-15T06:25:21.745Z,1009.22
2018-07-15T06:26:21.772Z,1009.42
2018-07-15T06:27:21.801Z,1009.44
2018-07-15T06:28:21.835Z,1009.21
2018-07-15T06:29:21.863Z,1009.33
2018-07-15T06:30:21.899Z,1009.63
2018-07-15T06:31:21.924Z,1010.13
2018-07-15T06:32:21.956Z,1010.11
2018-07-15T06:33:21.990Z,1010.04
2018-07-15T06:34:22.024Z,1010.44
2018-07-15T06:35:22.056Z,1010.86
2018-07-15T06:36:22.080Z,1011.30
2018-07-15T06:37:22.114Z,1011.88
2018-07-15T06:38:22.143Z,1011.75
2018-07-15T06:39:22.173Z,1011.64
2018-07-15T06:40:22.208Z,1011.79
2018-07-15T06:41:22.235Z,1012.18
2018-07-15T06:42:22.270Z,1012.05
2018-07-15T06:43:22.294Z,1011.94
2018-07-15T06:44:22.327Z,1012.31
2018-07-15T06:45:22.360Z,1012.81
2018-07-15T06:46:22.393Z,1013.23
2018-07-15T06:47:22.419Z,1013.39
2018-07-15T06:48:22.450Z,1013.22
2018-07-15T06:49:22.552Z,1013.44
2018-07-15T06:50:22.514Z,1013.89
2018-07-15T06:51:22.541Z,1014.24
2018-07-15T06:52:22.575Z,1014.36
2018-07-15T06:53:22.603Z,1014.76
2018-07-15T06:54:22.632Z,1015.17
2018-07-15T06:55:22.659Z,1015.34
2018-07-15T06:56:22.693Z,1015.71
2018-07-15T06:57:22.721Z,1015.63
2018-07-15T06:58:22.756Z,1014.86
2018-07-15T06:59:22.779Z,1014.93
2018-07-15T07:00:22.810Z,1015.13
2018-07-15T07:01:22.868Z,1015.35
2018-07-15T07:02:22.878Z,1016.64
2018-07-15T07:03:22.902Z,1018.12
2018-07-15T07:04:22.935Z,1017.79
2018-07-15T07:05:22.963Z,1016.86
2018-07-15T07:06:22.996Z,1016.12
2018-07-15T07:07:23.152Z,1016.26
2018-07-15T07:08:23.121Z,1017.34
2018-07-15T07:09:23.094Z,1017.69
2018-07-15T07:10:23.130Z,1017.84
2018-07-15T07:11:23.150Z,1018.45
2018-07-15T07:12:23.177Z,1018.74
2018-07-15T07:13:23.219Z,1018.60
2018-07-15T07:14:23.239Z,1018.09
2018-07-15T07:15:23.269Z,1017.35
2018-07-15T07:16:23.305Z,1016.94
2018-07-15T07:17:23.331Z,1017.55
2018-07-15T07:18:23.364Z,1018.82
2018-07-15T07:19:23.393Z,1019.69
2018-07-15T07:20:23.490Z,1019.98
2018-07-15T07:21:23.454Z,1020.41
2018-07-15T07:22:23.502Z,1020.60
2018-07-15T07:23:23.525Z,1020.18
2018-07-15T07:24:23.554Z,1019.94
2018-07-15T07:25:23.579Z,1020.20
2018-07-15T07:26:23.610Z,1019.92
2018-07-15T07:27:23.642Z,1019.81
2018-07-15T07:28:23.676Z,1020.30
2018-07-15T07:29:23.721Z,1020.71
2018-07-15T07:30:23.733Z,1020.50
2018-07-15T07:31:23.786Z,1020.27
2018-07-15T07:32:23.797Z,1020.10
2018-07-15T07:33:23.844Z,1020.36
2018-07-15T07:34:23.856Z,1020.63
2018-07-15T07:35:23.907Z,1020.53
2018-07-15T07:36:23.921Z,1020.49
2018-07-15T07:37:23.955Z,1020.91
2018-07-15T07:38:23.983Z,1021.38
2018-07-15T07:39:24.011Z,1021.58
2018-07-15T07:40:24.043Z,1022.18
2018-07-15T07:41:24.141Z,1023.20
2018-07-15T07:42:24.107Z,1022.06
2018-07-15T07:43:24.138Z,1020.72
2018-07-15T07:44:24.177Z,1021.03
2018-07-15T07:45:24.201Z,1021.78
2018-07-15T07:46:24.225Z,1021.97
2018-07-15T07:47:24.259Z,1020.27
2018-07-15T07:48:24.289Z,1020.85
2018-07-15T07:49:24.348Z,1022.60
2018-07-15T07:50:24.354Z,1022.77
2018-07-15T07:51:24.393Z,1022.90
2018-07-15T07:52:24.406Z,1024.05
2018-07-15T07:53:24.520Z,1024.75
2018-07-15T07:54:24.475Z,1023.28
2018-07-15T07:55:24.500Z,1023.32
2018-07-15T07:56:24.529Z,1022.34
2018-07-15T07:57:24.554Z,1021.79
2018-07-15T07:58:24.590Z,1021.65
2018-07-15T07:59:24.615Z,1023.41
2018-07-15T08:00:24.641Z,1024.74
2018-07-15T08:01:24.673Z,1023.86
2018-07-15T08:02:24.714Z,1023.37
2018-07-15T08:03:24.734Z,1024.00
2018-07-15T08:04:24.763Z,1022.54
2018-07-15T08:05:24.793Z,1021.17
2018-07-15T08:06:24.826Z,1022.72
2018-07-15T08:07:24.849Z,1024.54
2018-07-15T08:08:24.898Z,1025.77
2018-07-15T08:09:24.910Z,1026.01
2018-07-15T08:10:24.948Z,1023.83
2018-07-15T08:11:24.979Z,1021.86
2018-07-15T08:12:24.994Z,1020.29
2018-07-15T08:13:25.031Z,1021.54
2018-07-15T08:14:25.055Z,1024.01
2018-07-15T08:15:25.096Z,1024.36
2018-07-15T08:16:25.118Z,1023.37
2018-07-15T08:17:25.153Z,1027.37
2018-07-15T08:18:25.177Z,1029.52
2018-07-15T08:19:25.209Z,1025.88
2018-07-15T08:20:25.229Z,1025.42
2018-07-15T08:21:25.268Z,1026.22
2018-07-15T08:22:25.337Z,1025.27
2018-07-15T08:23:25.324Z,1024.09
2018-07-15T08:24:25.372Z,1021.78
2018-07-15T08:25:25.390Z,1020.49
2018-07-15T08:26:25.425Z,1021.51
2018-07-15T08:27:25.457Z,1025.11
2018-07-15T08:28:25.601Z,1025.95
2018-07-15T08:29:25.512Z,1025.29
2018-07-15T08:30:25.542Z,1026.33
2018-07-15T08:31:25.556Z,1025.54
2018-07-15T08:32:25.589Z,1025.37
2018-07-15T08:33:25.615Z,1026.69
2018-07-15T08:34:25.646Z,1026.48
2018-07-15T08:35:25.667Z,1025.70
2018-07-15T08:36:25.697Z,1024.84
2018-07-15T08:37:25.726Z,1024.71
2018-07-15T08:38:25.763Z,1018.88
2018-07-15T08:39:25.793Z,1006.61
2018-07-15T08:40:25.817Z,1004.46
2018-07-15T08:41:25.836Z,1004.36
2018-07-15T08:42:25.862Z,1004.33
2018-07-15T08:43:25.888Z,1004.32
2018-07-15T08:44:25.917Z,1004.31
2018-07-15T08:45:25.941Z,1004.33
2018-07-15T08:46:25.962Z,1004.27
2018-07-15T08:47:25.994Z,1004.27
2018-07-15T08:48:26.015Z,1004.28
2018-07-15T08:49:26.041Z,1004.31
2018-07-15T08:50:26.075Z,1004.29
2018-07-15T08:51:26.097Z,1004.29
2018-07-15T08:52:26.120Z,1004.31
2018-07-15T08:53:26.146Z,1004.28
2018-07-15T08:54:26.177Z,1004.36
2018-07-15T08:55:26.199Z,1004.28
2018-07-15T08:56:26.221Z,1004.31
2018-07-15T08:57:26.254Z,1004.29
2018-07-15T08:58:26.271Z,1004.28
2018-07-15T08:59:26.295Z,1004.26
2018-07-15T09:00:26.318Z,1004.32
2018-07-15T09:01:26.345Z,1004.23
2018-07-15T09:02:26.374Z,1004.19
2018-07-15T09:03:26.428Z,1004.20
2018-07-15T09:04:26.429Z,1004.16
2018-07-15T09:05:26.441Z,1004.14
2018-07-15T09:06:26.469Z,1004.17
2018-07-15T09:07:26.500Z,1004.13
2018-07-15T09:08:26.521Z,1004.08
2018-07-15T09:09:26.538Z,1004.11
2018-07-15T09:10:26.567Z,1004.09
2018-07-15T09:11:26.596Z,1004.16
2018-07-15T09:12:26.650Z,1004.09
2018-07-15T09:13:26.638Z,1004.08
2018-07-15T09:14:26.690Z,1004.16
2018-07-15T09:15:26.688Z,1004.10
2018-07-15T09:16:26.711Z,1004.09
2018-07-15T09:17:26.739Z,1004.08
2018-07-15T09:18:26.766Z,1004.07
2018-07-15T09:19:26.784Z,1004.12
2018-07-15T09:20:26.817Z,1004.06
2018-07-15T09:21:26.839Z,1004.01
2018-07-15T09:22:26.861Z,1003.98
2018-07-15T09:23:26.908Z,1003.95
2018-07-15T09:24:26.914Z,1004.01
2018-07-15T09:25:26.937Z,1003.99
2018-07-15T09:26:26.957Z,1004.01
2018-07-15T09:27:26.983Z,1003.95
2018-07-15T09:28:27.016Z,1003.97
2018-07-15T09:29:27.025Z,1003.99
2018-07-15T09:30:27.049Z,1004.00
2018-07-15T09:31:27.075Z,1004.00
2018-07-15T09:32:27.095Z,1004.02
2018-07-15T09:33:27.119Z,1004.01
2018-07-15T09:34:27.147Z,1004.08
2018-07-15T09:35:27.187Z,1004.01
2018-07-15T09:36:27.203Z,1004.02
2018-07-15T09:37:27.219Z,1004.03
2018-07-15T09:38:27.241Z,1004.08
2018-07-15T09:39:27.277Z,1004.13
2018-07-15T09:40:27.294Z,1004.08
2018-07-15T09:41:27.320Z,1004.09
2018-07-15T09:42:27.342Z,1004.08
2018-07-15T09:43:27.370Z,1004.06
2018-07-15T09:44:27.387Z,1004.06
2018-07-15T09:45:27.408Z,1004.05
2018-07-15T09:46:27.435Z,1004.03
2018-07-15T09:47:27.461Z,1004.01
2018-07-15T09:48:27.485Z,1004.02
2018-07-15T09:49:27.507Z,1004.04
2018-07-15T09:50:27.531Z,1004.01
2018-07-15T09:51:27.558Z,1004.04
2018-07-15T09:52:27.580Z,1004.03
2018-07-15T09:53:27.614Z,1004.03
2018-07-15T09:54:27.629Z,1004.03
2018-07-15T09:55:27.654Z,1004.00
2018-07-15T09:56:27.674Z,1003.92
2018-07-15T09:57:27.699Z,1004.00
2018-07-15T09:58:27.730Z,1003.97
2018-07-15T09:59:27.752Z,1003.97
2018-07-15T10:00:27.774Z,1003.94
2018-07-15T10:01:27.796Z,1003.97
2018-07-15T10:02:27.821Z,1003.96
2018-07-15T10:03:27.864Z,1004.00
2018-07-15T10:04:27.889Z,1003.95
2018-07-15T10:05:27.924Z,1003.96
2018-07-15T10:06:27.915Z,1003.96
2018-07-15T10:07:28.026Z,1003.93
2018-07-15T10:08:28.037Z,1003.92
2018-07-15T10:09:28.062Z,1003.89
2018-07-15T10:10:28.140Z,1003.91
2018-07-15T10:11:28.075Z,1003.92
2018-07-15T10:12:28.127Z,1003.88
2018-07-15T10:13:28.118Z,1003.92
2018-07-15T10:14:28.113Z,1003.85
2018-07-15T10:15:28.134Z,1003.86
2018-07-15T10:16:28.167Z,1003.89
2018-07-15T10:17:28.263Z,1003.86
2018-07-15T10:18:28.233Z,1003.85
2018-07-15T10:19:28.270Z,1003.83
2018-07-15T10:20:28.255Z,1003.84
2018-07-15T10:21:28.348Z,1003.88
2018-07-15T10:22:28.303Z,1003.81
2018-07-15T10:23:28.371Z,1003.78
2018-07-15T10:24:28.392Z,1003.77
2018-07-15T10:25:28.425Z,1003.77
2018-07-15T10:26:28.478Z,1003.78
2018-07-15T10:27:28.425Z,1003.71
2018-07-15T10:28:28.452Z,1003.74
2018-07-15T10:29:28.481Z,1003.73
2018-07-15T10:30:28.502Z,1003.74
2018-07-15T10:31:28.525Z,1003.73
2018-07-15T10:32:28.568Z,1003.78
2018-07-15T10:33:28.573Z,1003.71
2018-07-15T10:34:28.595Z,1003.68
2018-07-15T10:35:28.617Z,1003.69
2018-07-15T10:36:28.641Z,1003.72
2018-07-15T10:37:28.671Z,1003.68
2018-07-15T10:38:28.691Z,1003.69
2018-07-15T10:39:28.716Z,1003.70
2018-07-15T10:40:28.741Z,1003.67
2018-07-15T10:41:28.761Z,1003.68
2018-07-15T10:42:28.792Z,1003.67
2018-07-15T10:43:28.811Z,1003.64
2018-07-15T10:44:28.881Z,1003.64
2018-07-15T10:45:28.862Z,1003.69
2018-07-15T10:46:28.888Z,1003.64
2018-07-15T10:47:28.911Z,1003.66
2018-07-15T10:48:28.936Z,1003.66
2018-07-15T10:49:28.960Z,1003.66
2018-07-15T10:50:28.987Z,1003.65
2018-07-15T10:51:29.008Z,1003.63
2018-07-15T10:52:29.030Z,1003.60
2018-07-15T10:53:29.057Z,1003.63
2018-07-15T10:54:29.086Z,1003.59
2018-07-15T10:55:29.122Z,1003.60
2018-07-15T10:56:29.127Z,1003.60
2018-07-15T10:57:29.152Z,1003.58
2018-07-15T10:58:29.178Z,1003.60
2018-07-15T10:59:29.200Z,1003.58
2018-07-15T11:00:29.237Z,1003.55
2018-07-15T11:01:29.264Z,1003.54
2018-07-15T11:02:29.272Z,1003.51
2018-07-15T11:03:29.342Z,1003.58
2018-07-15T11:04:29.319Z,1003.58
2018-07-15T11:05:29.342Z,1003.55
2018-07-15T11:06:29.436Z,1003.52
2018-07-15T11:07:29.392Z,1003.47
2018-07-15T11:08:29.416Z,1003.50
2018-07-15T11:09:29.443Z,1003.48
2018-07-15T11:10:29.464Z,1003.47
2018-07-15T11:11:29.486Z,1003.44
2018-07-15T11:12:29.515Z,1003.43
2018-07-15T11:13:29.601Z,1003.41
2018-07-15T11:14:29.579Z,1003.40
2018-07-15T11:15:29.584Z,1003.33
2018-07-15T11:16:29.680Z,1003.37
2018-07-15T11:17:29.634Z,1003.31
2018-07-15T11:18:29.663Z,1003.36
2018-07-15T11:19:29.682Z,1003.36
2018-07-15T11:20:29.708Z,1003.33
2018-07-15T11:21:29.730Z,1003.34
2018-07-15T11:22:29.833Z,1003.29
2018-07-15T11:23:29.784Z,1003.25
2018-07-15T11:24:29.808Z,1003.32
2018-07-15T11:25:29.834Z,1003.30
2018-07-15T11:26:29.855Z,1003.31
2018-07-15T11:27:29.877Z,1003.36
2018-07-15T11:28:29.907Z,1003.38
2018-07-15T11:29:29.928Z,1003.37
2018-07-15T11:30:29.957Z,1003.32
2018-07-15T11:31:30.091Z,1003.31
2018-07-15T11:32:29.999Z,1003.28
2018-07-15T11:33:30.024Z,1003.21
2018-07-15T11:34:30.053Z,1003.21
2018-07-15T11:35:30.072Z,1003.26
2018-07-15T11:36:30.096Z,1003.25
2018-07-15T11:37:30.122Z,1003.20
2018-07-15T11:38:30.156Z,1003.18
2018-07-15T11:39:30.179Z,1003.23
2018-07-15T11:40:30.198Z,1003.20
2018-07-15T11:41:30.220Z,1003.22
2018-07-15T11:42:30.246Z,1003.23
2018-07-15T11:43:30.289Z,1003.21
2018-07-15T11:44:30.292Z,1003.16
2018-07-15T11:45:30.321Z,1003.14
2018-07-15T11:46:30.346Z,1003.15
2018-07-15T11:47:30.365Z,1003.17
2018-07-15T11:48:30.390Z,1003.19
2018-07-15T11:49:30.414Z,1003.12
2018-07-15T11:50:30.448Z,1003.16
2018-07-15T11:51:30.472Z,1003.08
2018-07-15T11:52:30.493Z,1003.10
2018-07-15T11:53:30.511Z,1003.10
2018-07-15T11:54:30.605Z,1003.07
2018-07-15T11:55:30.563Z,1003.05
2018-07-15T11:56:30.585Z,1003.00
2018-07-15T11:57:30.614Z,1003.01
2018-07-15T11:58:30.638Z,1002.99
2018-07-15T11:59:30.666Z,1002.93
2018-07-15T12:00:30.681Z,1002.97
2018-07-15T12:01:30.731Z,1002.93
2018-07-15T12:02:30.739Z,1002.93
2018-07-15T12:03:30.761Z,1002.94
2018-07-15T12:04:30.782Z,1002.93
2018-07-15T12:05:30.813Z,1002.92